LIEALIRQ

Guest
Details From LIEA - Alghero
To LIRQ - Firenze
Flight Number -
Tags Generated
Created
Modified
Stats Distance 231 nm / 428 km
Max Altitude 0 ft / 0 m
Waypoints 4
Social Downloads 0
Likes 0
Share VATSIM

Download

Looking for another format? Having issues loading an existing format? Contact us
Advertisement - Login to hide

Notes

Generated

Route

LIEA SZA PRT11 LIRQ

ID Type Via Altitude Latitude Longitude Leg Dist Tot Dist Heading (true) Name
O LIEA APT - 0 ft / 0 m 40.61985˚ 8.28339˚ - 0 nm - -
SZA NDB - 0 ft / 0 m 41.93333˚ 9.39400˚ 93 nm 93 nm 32° / 33° SOLENZARA NDB
PRT11 FIX - 0 ft / 0 m 43.65519˚ 11.04151˚ 126 nm 219 nm 35° / 36° -
O LIRQ APT - 0 ft / 0 m 43.80507˚ 11.19741˚ 11 nm 231 nm 37° / 37° -

Altitude Profile

Advertisement - Login to hide

Weather


0- 5 10 15 20 25 30 35+ Temperature / ° C

Clouds and Precipitation
Forecast for 2018-05-27 12:00 UTC. Updated an hour ago

Ground ~20,000 ft ~40,000 ft Winds

LIEA

Details ICAO LIEA (AHO)
Name ALGHERO
Region Italy
Timezone Europe/Rome (UTC+2.0)
Stats Elevation 87 ft / 27 m (AMSL)
Location 40.632132° 8.290774°
Runways 1
Magnetic Variation 2.241° E

METAR

LIEA 271220Z 04009KT CAVOK 29/18 Q1013

Decode

TAF

TAF LIEA 271100Z 2712/2812 19010KT 9999 SCT030 BECMG 2716/2718 VRB05KT TEMPO 2807/2812 4000 SHRA BECMG 2810/2812 01012KT

Decode

Departure Runways

ID Width Length Bearing (true) Bearing (mag) Surface Threshold Offset Overrun Length
02 148 ft / 45 m 9,854 ft / 3,004 m 24.51° 22.27° Asphalt 0 ft / 0 m 0 ft / 0 m
20 148 ft / 45 m 9,854 ft / 3,004 m 204.52° 202.28° Asphalt 0 ft / 0 m 0 ft / 0 m

LIRQ

Details ICAO LIRQ (FLR)
Name Firenze
Region Italy
Timezone Europe/Rome (UTC+2.0)
Stats Elevation 142 ft / 43 m (AMSL)
Location 43.809984° 11.205118°
Runways 1
Magnetic Variation 2.924° E

METAR

LIRQ 271220Z 18005KT 130V210 CAVOK 31/14 Q1016

Decode

TAF

TAF LIRQ 271100Z 2712/2812 VRB05KT 9999 FEW030 BECMG 2810/2812 23010KT

Decode

Destination Runways

ID Width Length Bearing (true) Bearing (mag) Surface Threshold Offset Overrun Length
05 98 ft / 30 m 5,420 ft / 1,652 m 48.52° 45.60° Asphalt 492 ft / 150 m 0 ft / 0 m
23 98 ft / 30 m 5,420 ft / 1,652 m 228.53° 225.61° Asphalt 2,287 ft / 697 m 0 ft / 0 m

Approach Navaids

Runway Type Ident Frequency Range Bearing (true) Bearing (mag) Slope Elevation
05 Localiser IFZ 110.30 MHz 18 nm / 33 km 48.10° 45.18° - 131 ft / 40 m (AMSL)
05 Glidescope IFZ 110.30 MHz 10 nm / 19 km 47.00° 44.08° 3.00° 144 ft / 44 m (AMSL)
05 DME IFZ 110.30 MHz 18 nm / 33 km - - - 144 ft / 44 m (AMSL)

Popular Alternatives